Terminal Aerodrome Forecast
Issued by NWS Medford, OR

Home | Current Version | Previous Version | Text Only | Print | Product List | Glossary On
Versions: 1 2 3 4 5 6 7 8 9 10 11 12 13 14 15 16 17 18 19 20 21 22 23 24 25 26 27
021
FTUS46 KMFR 201742
TAFMFR
TAF
KMFR 201742Z 2018/2118 04004KT P6SM -RA FEW045 OVC070 WS020/23035KT
     FM210300 VRB04KT 5SM -RA BR BKN015 OVC030 WS020/23035KT
     FM210900 14006KT P6SM BKN035 OVC050=

USA.gov is the U.S. government's official web portal to all federal, state and local government web resources and services.